Time;durP1;ratioP1;P1;durP2;ratioP2;P2;SDS_P1;SDS_P2;PMS_P1;PMS_P2;Temp;Humidity;BMP_temperature;BMP_pressure;BME280_temperature;BME280_humidity;BME280_pressure;Samples;Min_cycle;Max_cycle;Signal;HPM_P1;HPM_P2
2024/01/30 00:02:47;;;;;;;4.13;3.30;;;;;;;17.11;55.57;102276.78;20972254;28;20048;-62
2024/01/30 00:12:48;;;;;;;4.75;3.20;;;;;;;17.10;55.68;102277.75;21028406;28;20416;-62
2024/01/30 00:22:50;;;;;;;3.78;3.28;;;;;;;17.10;55.63;102261.59;21036794;28;20046;-62
2024/01/30 00:32:53;;;;;;;3.40;2.72;;;;;;;17.03;55.44;102246.81;21038826;28;20480;-62
2024/01/30 00:42:54;;;;;;;4.25;2.70;;;;;;;17.10;55.61;102254.41;21041424;28;20412;-62
2024/01/30 00:52:56;;;;;;;3.08;2.75;;;;;;;17.09;55.68;102252.66;21053443;28;20051;-62
2024/01/30 01:02:59;;;;;;;3.70;3.33;;;;;;;17.07;55.46;102254.59;21045336;28;20106;-62
2024/01/30 01:13:00;;;;;;;3.17;2.78;;;;;;;17.06;55.35;102249.31;21043115;28;20105;-62
2024/01/30 01:23:02;;;;;;;3.88;3.13;;;;;;;17.03;55.44;102242.31;21028487;28;20056;-62
2024/01/30 01:33:04;;;;;;;3.08;2.78;;;;;;;17.03;55.47;102241.44;21032210;28;20125;-62
2024/01/30 01:43:06;;;;;;;4.15;2.83;;;;;;;17.04;55.30;102237.78;21048000;28;20121;-62
2024/01/30 01:53:08;;;;;;;4.15;2.50;;;;;;;17.03;55.31;102231.53;21003252;28;20067;-61
2024/01/30 02:03:11;;;;;;;3.45;3.00;;;;;;;16.91;55.26;102206.25;21030537;28;20438;-62
2024/01/30 02:13:13;;;;;;;3.38;2.55;;;;;;;17.01;55.24;102206.53;21045401;28;20229;-61
2024/01/30 02:23:15;;;;;;;3.20;2.60;;;;;;;17.01;55.24;102205.69;21011249;28;20495;-62
2024/01/30 02:33:17;;;;;;;3.17;2.60;;;;;;;17.00;55.19;102187.81;21027258;27;20106;-61
2024/01/30 02:43:19;;;;;;;3.63;3.13;;;;;;;17.01;55.13;102189.53;21016561;28;20048;-61
2024/01/30 02:53:21;;;;;;;3.63;2.95;;;;;;;16.99;55.14;102186.09;21032577;28;20044;-62
2024/01/30 03:03:22;;;;;;;4.00;2.80;;;;;;;16.99;55.19;102178.88;21039120;28;20101;-61
2024/01/30 03:13:25;;;;;;;3.35;2.65;;;;;;;16.98;55.02;102154.78;20989999;28;20059;-62
2024/01/30 03:23:26;;;;;;;2.95;2.53;;;;;;;16.97;55.26;102151.16;20971545;28;20561;-62
2024/01/30 03:33:28;;;;;;;4.78;2.67;;;;;;;16.97;54.99;102156.53;21028793;28;20051;-61
2024/01/30 03:43:30;;;;;;;4.07;2.90;;;;;;;16.98;55.07;102138.63;21021442;28;20052;-62
2024/01/30 03:53:32;;;;;;;3.90;2.75;;;;;;;17.00;55.05;102134.00;21015524;28;20055;-61
2024/01/30 04:03:33;;;;;;;4.10;2.67;;;;;;;16.99;54.85;102106.22;21033892;28;20051;-62
2024/01/30 04:13:35;;;;;;;3.92;2.83;;;;;;;16.96;54.86;102118.03;21022790;28;20467;-61
2024/01/30 04:23:37;;;;;;;2.90;2.58;;;;;;;16.93;55.25;102109.28;20998527;28;20059;-61
2024/01/30 04:33:39;;;;;;;2.38;2.17;;;;;;;16.93;55.02;102091.34;20974085;28;20052;-62
2024/01/30 04:43:41;;;;;;;3.80;2.67;;;;;;;16.95;55.12;102081.34;20973091;28;20489;-61
2024/01/30 04:53:43;;;;;;;4.47;2.60;;;;;;;16.95;55.12;102081.34;20983395;28;20052;-62
2024/01/30 05:03:44;;;;;;;3.70;3.10;;;;;;;16.98;55.09;102082.97;20986384;28;20068;-61
2024/01/30 05:13:47;;;;;;;4.45;3.08;;;;;;;16.97;54.93;102086.59;20961818;28;20044;-62
2024/01/30 05:23:48;;;;;;;4.40;2.58;;;;;;;16.95;55.42;102061.63;20985065;28;20048;-61
2024/01/30 05:33:50;;;;;;;4.10;2.95;;;;;;;16.99;55.01;102065.03;20967659;28;20052;-61
2024/01/30 05:43:53;;;;;;;3.72;2.90;;;;;;;16.98;54.85;102057.94;21020274;28;20052;-62
2024/01/30 05:53:54;;;;;;;2.97;2.67;;;;;;;16.96;54.81;102056.16;21047044;28;20113;-62
2024/01/30 06:03:56;;;;;;;3.33;2.67;;;;;;;17.00;54.94;102061.38;21030839;28;20231;-62
2024/01/30 06:13:58;;;;;;;4.20;2.63;;;;;;;17.00;54.86;102056.00;21030247;28;20059;-62
2024/01/30 06:24:00;;;;;;;3.13;2.45;;;;;;;17.02;54.77;102072.91;21029725;28;20052;-61
2024/01/30 06:34:02;;;;;;;2.85;2.45;;;;;;;17.02;54.75;102067.50;21027450;28;20052;-62
2024/01/30 06:44:06;;;;;;;2.97;2.40;;;;;;;17.01;54.96;102058.56;21021743;28;20484;-62
2024/01/30 06:54:08;;;;;;;3.28;2.65;;;;;;;17.01;54.71;102050.50;21041387;28;20163;-61
2024/01/30 07:04:10;;;;;;;2.95;2.40;;;;;;;17.02;54.79;102024.47;21025633;28;20047;-62
2024/01/30 07:14:12;;;;;;;3.85;2.60;;;;;;;17.24;54.57;102043.59;20996512;28;20052;-70
2024/01/30 07:24:13;;;;;;;3.60;2.95;;;;;;;17.66;53.36;102029.97;21041638;28;20055;-71
2024/01/30 07:34:15;;;;;;;5.03;2.40;;;;;;;17.92;52.67;102075.78;21003098;28;20114;-70
2024/01/30 07:44:17;;;;;;;5.07;2.72;;;;;;;18.06;52.26;102069.41;20981549;28;20067;-70
2024/01/30 07:54:19;;;;;;;2.95;2.40;;;;;;;18.14;51.96;102066.19;20977033;28;20048;-70
2024/01/30 08:04:21;;;;;;;3.08;2.53;;;;;;;18.24;51.56;102085.25;20965017;28;20052;-70
2024/01/30 08:14:23;;;;;;;3.53;2.80;;;;;;;18.29;51.51;102085.78;20970903;28;20630;-71
2024/01/30 08:24:25;;;;;;;2.65;2.25;;;;;;;18.28;51.26;102078.69;20996445;28;20488;-70
2024/01/30 08:34:27;;;;;;;2.40;2.10;;;;;;;18.40;52.02;102082.34;21018669;28;20789;-70
2024/01/30 08:44:29;;;;;;;5.53;4.15;;;;;;;18.43;52.37;102089.31;20990577;28;20052;-69
2024/01/30 08:54:32;;;;;;;5.88;3.40;;;;;;;18.65;52.06;102102.97;20973358;28;20045;-69
2024/01/30 09:04:34;;;;;;;4.18;2.95;;;;;;;18.88;51.83;102092.31;20966676;28;20040;-66
2024/01/30 09:14:37;;;;;;;4.82;3.03;;;;;;;18.99;51.80;102105.91;20979472;27;20056;-66
2024/01/30 09:24:40;;;;;;;3.58;2.78;;;;;;;19.12;52.02;102121.19;20987853;27;20048;-66
2024/01/30 09:34:42;;;;;;;4.97;2.60;;;;;;;19.25;52.07;102118.44;20980785;28;20497;-67
2024/01/30 09:44:44;;;;;;;2.92;2.42;;;;;;;19.33;51.64;102129.53;20992179;28;20151;-67
2024/01/30 09:54:47;;;;;;;4.63;2.88;;;;;;;19.26;52.05;102115.63;20971162;28;20056;-66
2024/01/30 10:04:50;;;;;;;3.78;2.88;;;;;;;19.39;51.75;102111.97;20974556;28;20052;-67
2024/01/30 10:14:52;;;;;;;3.53;2.72;;;;;;;19.40;51.54;102106.47;20977136;28;20155;-70
2024/01/30 10:24:54;;;;;;;3.75;2.55;;;;;;;19.54;51.72;102127.03;20978680;27;20048;-69
2024/01/30 10:34:56;;;;;;;3.33;2.50;;;;;;;19.61;51.81;102105.78;20978186;28;20055;-70
2024/01/30 10:45:08;;;;;;;3.30;2.45;;;;;;;19.62;51.67;102102.09;20980996;28;20135;-64
2024/01/30 10:55:10;;;;;;;3.28;2.70;;;;;;;19.74;52.27;102118.38;20969698;28;20045;-63
2024/01/30 11:05:12;;;;;;;2.95;2.58;;;;;;;19.77;52.30;102127.09;20975503;27;20056;-63
2024/01/30 11:15:16;;;;;;;3.47;2.50;;;;;;;19.72;52.58;102129.28;20975923;28;20044;-64
2024/01/30 11:25:20;;;;;;;3.42;2.30;;;;;;;19.58;52.90;102094.38;20968750;28;20541;-64
2024/01/30 11:35:21;;;;;;;3.45;2.70;;;;;;;19.65;52.82;102114.53;20999157;28;20075;-64
2024/01/30 11:45:24;;;;;;;4.97;2.70;;;;;;;19.56;52.96;102122.38;20992219;28;20067;-64
2024/01/30 11:55:25;;;;;;;3.10;2.63;;;;;;;19.55;52.88;102106.25;20973156;28;20133;-64
2024/01/30 12:05:30;;;;;;;;;;;;;;;19.54;53.04;102116.22;20970220;28;20415;-63
2024/01/30 12:15:32;;;;;;;3.08;2.53;;;;;;;19.68;53.31;102103.50;20979876;28;20023;-63
2024/01/30 12:25:34;;;;;;;4.35;2.30;;;;;;;19.94;52.78;102092.53;20989692;28;20051;-64
2024/01/30 12:35:36;;;;;;;3.88;2.83;;;;;;;19.99;52.50;102109.25;20974192;28;20083;-63
2024/01/30 12:45:50;;;;;;;4.88;2.40;;;;;;;20.01;53.09;102142.41;20972359;27;20059;-64
2024/01/30 12:55:53;;;;;;;3.38;2.10;;;;;;;20.06;54.04;102148.31;20984597;28;20048;-64
2024/01/30 13:05:55;;;;;;;2.47;2.05;;;;;;;20.02;54.00;102119.81;20995790;28;20055;-65
2024/01/30 13:15:57;;;;;;;3.38;1.98;;;;;;;20.09;54.21;102148.06;20983412;27;20053;-64
2024/01/30 13:25:59;;;;;;;3.15;1.90;;;;;;;20.06;54.21;102152.84;20996673;28;20181;-65
2024/01/30 13:36:01;;;;;;;3.30;1.90;;;;;;;19.92;59.94;102130.47;21000888;28;20137;-65
2024/01/30 13:46:03;;;;;;;7.40;2.15;;;;;;;19.97;61.94;102159.84;20985088;28;20052;-65
2024/01/30 13:56:06;;;;;;;4.05;1.73;;;;;;;19.93;64.10;102161.06;20966403;28;20141;-66
2024/01/30 14:06:08;;;;;;;2.72;1.60;;;;;;;20.00;65.51;102159.63;20958315;28;20493;-66
2024/01/30 14:16:10;;;;;;;3.88;1.88;;;;;;;20.14;65.65;102155.84;20951458;28;20072;-66
2024/01/30 14:26:14;;;;;;;2.53;1.50;;;;;;;20.24;63.31;102164.06;20962570;28;20178;-66
2024/01/30 14:36:17;;;;;;;2.85;1.40;;;;;;;20.21;63.01;102180.53;20966658;28;20168;-66
2024/01/30 14:46:19;;;;;;;3.70;1.50;;;;;;;20.17;62.95;102185.34;20962981;28;20480;-64
2024/01/30 14:56:21;;;;;;;1.73;1.30;;;;;;;20.10;63.16;102190.34;20948074;28;20055;-66
2024/01/30 15:06:24;;;;;;;3.55;1.30;;;;;;;20.09;62.51;102203.97;20958976;28;20059;-66
2024/01/30 15:16:28;;;;;;;4.05;1.20;;;;;;;20.04;66.53;102208.88;20947367;28;20052;-65
2024/01/30 15:26:30;;;;;;;3.00;1.25;;;;;;;19.99;64.46;102211.94;20931926;28;20052;-65
2024/01/30 15:36:31;;;;;;;2.10;1.23;;;;;;;19.95;64.42;102227.53;20935135;28;20056;-67
2024/01/30 15:46:33;;;;;;;4.15;1.38;;;;;;;19.92;64.36;102235.88;20983165;28;20074;-71
2024/01/30 15:56:35;;;;;;;4.05;1.30;;;;;;;19.96;65.65;102244.63;20973006;28;20044;-71
2024/01/30 16:06:37;;;;;;;3.65;1.55;;;;;;;19.97;65.67;102251.75;20957223;28;20044;-70
2024/01/30 16:16:39;;;;;;;1.88;0.80;;;;;;;19.91;65.56;102263.03;20948977;28;20049;-69
2024/01/30 16:26:41;;;;;;;1.75;0.77;;;;;;;19.90;64.94;102289.19;20963682;28;20479;-68
2024/01/30 16:36:45;;;;;;;1.40;0.55;;;;;;;19.88;63.83;102304.63;20943054;28;20079;-68
2024/01/30 16:46:47;;;;;;;1.80;0.95;;;;;;;19.80;63.14;102326.81;20985430;28;20051;-66
2024/01/30 16:56:53;;;;;;;1.88;0.80;;;;;;;19.69;63.28;102321.34;21000313;28;20105;-66
2024/01/30 17:06:54;;;;;;;2.60;0.77;;;;;;;19.52;63.03;102345.06;20958946;28;20536;-66
2024/01/30 17:16:56;;;;;;;2.05;0.75;;;;;;;19.39;62.88;102352.31;20973307;28;20063;-66
2024/01/30 17:27:12;;;;;;;0.88;0.70;;;;;;;19.22;62.63;102362.50;20979339;28;20036;-66
2024/01/30 17:37:14;;;;;;;1.15;0.70;;;;;;;19.14;62.69;102386.50;20955357;28;20106;-68
2024/01/30 17:47:16;;;;;;;1.45;0.77;;;;;;;19.06;62.54;102403.22;20970007;28;20068;-67
2024/01/30 17:57:18;;;;;;;0.95;0.60;;;;;;;19.03;62.31;102424.19;20965034;28;20052;-67
2024/01/30 18:07:20;;;;;;;0.68;0.68;;;;;;;18.88;62.79;102440.41;20997300;28;20048;-66
2024/01/30 18:17:22;;;;;;;1.25;0.70;;;;;;;18.79;62.33;102459.94;20980110;28;20056;-66
2024/01/30 18:27:24;;;;;;;1.15;0.55;;;;;;;18.67;61.84;102483.19;20974829;28;20045;-67
2024/01/30 18:37:25;;;;;;;0.75;0.55;;;;;;;18.62;61.48;102491.63;20961542;28;20048;-67
2024/01/30 18:47:27;;;;;;;0.77;0.73;;;;;;;18.54;61.03;102515.50;21000215;28;20055;-67
2024/01/30 18:57:29;;;;;;;1.27;0.60;;;;;;;18.36;61.01;102518.47;20997511;28;20047;-67
2024/01/30 19:07:31;;;;;;;0.75;0.52;;;;;;;18.40;60.58;102543.41;20985006;28;20048;-67
2024/01/30 19:17:33;;;;;;;1.13;0.57;;;;;;;18.33;60.35;102561.78;20990894;28;20044;-67
2024/01/30 19:27:35;;;;;;;1.70;0.60;;;;;;;18.29;59.99;102571.03;21006689;28;20068;-67
2024/01/30 19:37:37;;;;;;;1.60;0.60;;;;;;;18.23;59.70;102584.94;20991640;28;20510;-67
2024/01/30 19:47:39;;;;;;;0.73;0.40;;;;;;;18.19;59.39;102613.03;21010007;28;20055;-67
2024/01/30 19:57:41;;;;;;;1.95;0.70;;;;;;;18.17;59.20;102614.97;21028636;28;20051;-67
2024/01/30 20:07:43;;;;;;;1.88;0.55;;;;;;;18.11;59.03;102638.63;21021672;28;20044;-67
2024/01/30 20:17:45;;;;;;;2.03;0.70;;;;;;;18.07;58.66;102653.25;21010867;28;20067;-68
2024/01/30 20:27:47;;;;;;;0.95;0.60;;;;;;;18.05;58.51;102689.34;21009668;28;20397;-67
2024/01/30 20:37:51;;;;;;;0.88;0.60;;;;;;;18.04;58.18;102690.31;21029083;28;20101;-67
2024/01/30 20:47:52;;;;;;;1.85;0.63;;;;;;;18.03;58.03;102711.00;20979088;28;20052;-67
2024/01/30 20:57:54;;;;;;;1.23;0.77;;;;;;;18.00;57.70;102732.72;20992593;28;20048;-67
2024/01/30 21:07:56;;;;;;;2.03;0.70;;;;;;;17.94;57.31;102750.13;21028438;28;20577;-66
2024/01/30 21:17:58;;;;;;;2.58;0.70;;;;;;;17.91;57.30;102750.31;21006173;28;20044;-66
2024/01/30 21:28:00;;;;;;;1.25;0.60;;;;;;;17.89;56.96;102762.97;21035472;28;20136;-67
2024/01/30 21:38:04;;;;;;;2.15;0.75;;;;;;;17.85;56.71;102772.22;21047235;28;20047;-67
2024/01/30 21:48:06;;;;;;;1.88;0.57;;;;;;;17.80;56.66;102796.75;21033868;28;20059;-67
2024/01/30 21:58:08;;;;;;;1.70;0.60;;;;;;;17.78;56.82;102793.28;21051362;28;20071;-67
2024/01/30 22:08:10;;;;;;;1.08;0.40;;;;;;;17.74;56.34;102791.72;21049052;28;20052;-67
2024/01/30 22:18:12;;;;;;;1.52;0.43;;;;;;;17.71;56.13;102813.44;21029932;28;20051;-67
2024/01/30 22:28:14;;;;;;;1.90;0.50;;;;;;;17.69;55.87;102820.75;21030996;28;20100;-67
2024/01/30 22:38:16;;;;;;;1.20;0.57;;;;;;;17.63;55.91;102838.13;21029159;28;20044;-67
2024/01/30 22:48:17;;;;;;;0.90;0.40;;;;;;;17.61;55.67;102833.75;21029158;28;20048;-66
2024/01/30 22:58:19;;;;;;;1.20;0.47;;;;;;;17.59;55.54;102841.94;21012413;28;20036;-66
2024/01/30 23:08:21;;;;;;;0.95;0.43;;;;;;;17.60;55.29;102858.97;21026883;28;20044;-67
2024/01/30 23:18:23;;;;;;;1.25;0.60;;;;;;;17.53;55.31;102867.38;21043186;28;20059;-67
2024/01/30 23:28:25;;;;;;;1.02;0.40;;;;;;;17.49;55.35;102884.69;21024939;28;20416;-67
2024/01/30 23:38:27;;;;;;;0.55;0.35;;;;;;;17.48;55.21;102891.00;21041858;28;20610;-67
2024/01/30 23:48:29;;;;;;;1.13;0.40;;;;;;;17.44;54.87;102904.72;21024573;28;20123;-67
2024/01/30 23:58:31;;;;;;;0.47;0.32;;;;;;;17.44;54.88;102915.50;21024131;28;20052;-67
